createdAt,value
2022-09-11T00:02:20.087Z,95848.00
2022-09-11T00:04:47.311Z,95844.28
2022-09-11T00:07:14.370Z,95844.84
2022-09-11T00:09:41.403Z,95852.75
2022-09-11T00:12:08.613Z,95847.09
2022-09-11T00:14:35.728Z,95844.03
2022-09-11T00:17:04.271Z,95847.94
2022-09-11T00:19:31.410Z,95844.16
2022-09-11T00:21:58.504Z,95849.63
2022-09-11T00:24:25.571Z,95840.78
2022-09-11T00:26:52.633Z,95840.94
2022-09-11T00:29:19.690Z,95841.19
2022-09-11T00:31:46.740Z,95843.00
2022-09-11T00:34:15.233Z,95847.97
2022-09-11T00:36:42.442Z,95841.53
2022-09-11T00:39:11.351Z,95835.91
2022-09-11T00:41:42.090Z,95836.97
2022-09-11T00:44:47.511Z,95837.28
2022-09-11T00:47:19.451Z,95832.78
2022-09-11T00:49:51.196Z,95828.03
2022-09-11T00:52:23.591Z,95830.34
2022-09-11T00:54:57.713Z,95827.13
2022-09-11T00:57:30.761Z,95817.84
2022-09-11T01:00:01.532Z,95824.19
2022-09-11T01:02:35.309Z,95825.16
2022-09-11T01:05:03.710Z,95816.63
2022-09-11T01:07:33.390Z,95813.41
2022-09-11T01:10:00.692Z,95812.84
2022-09-11T01:12:37.370Z,95822.59
2022-09-11T01:15:12.011Z,95809.81
2022-09-11T01:18:02.672Z,95809.00
2022-09-11T01:20:45.751Z,95801.06
2022-09-11T01:23:49.750Z,95811.91
2022-09-11T01:26:42.871Z,95808.44
2022-09-11T01:29:22.169Z,95809.47
2022-09-11T01:31:57.409Z,95811.56
2022-09-11T01:34:35.447Z,95810.28
2022-09-11T01:37:11.347Z,95815.03
2022-09-11T01:39:44.998Z,95812.38
2022-09-11T01:42:18.949Z,95817.94
2022-09-11T01:44:53.247Z,95812.53
2022-09-11T01:47:21.489Z,95815.66
2022-09-11T01:49:53.729Z,95823.06
2022-09-11T01:52:27.208Z,95811.06
2022-09-11T01:55:01.152Z,95813.97
2022-09-11T01:57:36.087Z,95817.06
2022-09-11T02:00:09.828Z,95811.25
2022-09-11T02:02:41.528Z,95818.81
2022-09-11T02:05:16.066Z,95818.50
2022-09-11T02:07:49.189Z,95820.44
2022-09-11T02:10:23.407Z,95815.34
2022-09-11T02:12:57.047Z,95814.00
2022-09-11T02:15:36.168Z,95814.00
2022-09-11T02:18:11.527Z,95817.25
2022-09-11T02:20:38.608Z,95810.66
2022-09-11T02:23:06.030Z,95818.22
2022-09-11T02:25:33.229Z,95808.31
2022-09-11T02:28:00.328Z,95807.59
2022-09-11T02:30:29.229Z,95808.56
2022-09-11T02:32:56.506Z,95806.72
2022-09-11T02:35:28.949Z,95808.81
2022-09-11T02:38:06.769Z,95812.59
2022-09-11T02:40:46.649Z,95806.22
2022-09-11T02:43:38.362Z,95816.53
2022-09-11T02:46:35.068Z,95808.31
2022-09-11T02:49:13.691Z,95806.41
2022-09-11T02:51:54.651Z,95809.78
2022-09-11T02:54:33.169Z,95798.34
2022-09-11T02:57:08.138Z,95798.59
2022-09-11T02:59:41.108Z,95805.41
2022-09-11T03:02:14.373Z,95799.59
2022-09-11T03:04:41.668Z,95802.97
2022-09-11T03:07:08.730Z,95800.66
2022-09-11T03:09:35.867Z,95797.44
2022-09-11T03:12:03.727Z,95803.47
2022-09-11T03:14:30.850Z,95803.94
2022-09-11T03:16:57.968Z,95806.25
2022-09-11T03:19:26.428Z,95804.94
2022-09-11T03:21:53.549Z,95803.44
2022-09-11T03:24:20.649Z,95799.31
2022-09-11T03:26:47.689Z,95789.66
2022-09-11T03:29:15.009Z,95791.22
2022-09-11T03:31:42.128Z,95797.34
2022-09-11T03:34:09.588Z,95794.41
2022-09-11T03:36:38.107Z,95783.63
2022-09-11T03:39:05.867Z,95779.63
2022-09-11T03:41:32.970Z,95778.88
2022-09-11T03:44:00.168Z,95776.91
2022-09-11T03:46:27.307Z,95780.84
2022-09-11T03:48:54.388Z,95784.31
2022-09-11T03:51:21.470Z,95776.56
2022-09-11T03:53:49.927Z,95784.72
2022-09-11T03:56:17.027Z,95784.88
2022-09-11T03:58:44.108Z,95777.66
2022-09-11T04:01:13.107Z,95780.56
2022-09-11T04:03:41.349Z,95777.34
2022-09-11T04:06:09.848Z,95784.47
2022-09-11T04:08:36.930Z,95787.38
2022-09-11T04:11:06.287Z,95782.91
2022-09-11T04:13:35.407Z,95790.03
2022-09-11T04:16:04.941Z,95779.63
2022-09-11T04:18:34.507Z,95787.38
2022-09-11T04:21:04.027Z,95788.63
2022-09-11T04:23:31.154Z,95785.22
2022-09-11T04:25:58.187Z,95786.97
2022-09-11T04:28:28.487Z,95779.56
2022-09-11T04:30:55.888Z,95778.91
2022-09-11T04:33:23.629Z,95786.31
2022-09-11T04:35:51.187Z,95779.47
2022-09-11T04:38:18.248Z,95786.50
2022-09-11T04:40:45.387Z,95786.31
2022-09-11T04:43:12.527Z,95782.94
2022-09-11T04:45:41.007Z,95790.84
2022-09-11T04:48:08.107Z,95792.38
2022-09-11T04:50:35.208Z,95789.47
2022-09-11T04:53:02.327Z,95797.69
2022-09-11T04:55:29.430Z,95805.16
2022-09-11T04:57:56.529Z,95795.97
2022-09-11T05:00:23.567Z,95792.59
2022-09-11T05:02:52.094Z,95802.19
2022-09-11T05:05:19.169Z,95801.94
2022-09-11T05:07:49.068Z,95808.34
2022-09-11T05:10:16.187Z,95804.84
2022-09-11T05:12:43.226Z,95805.31
2022-09-11T05:15:11.227Z,95799.75
2022-09-11T05:17:38.528Z,95806.91
2022-09-11T05:20:11.761Z,95801.84
2022-09-11T05:22:39.049Z,95806.03
2022-09-11T05:25:06.448Z,95810.50
2022-09-11T05:27:33.508Z,95808.72
2022-09-11T05:30:00.588Z,95811.22
2022-09-11T05:32:27.649Z,95816.47
2022-09-11T05:34:54.728Z,95806.81
2022-09-11T05:37:23.268Z,95810.50
2022-09-11T05:39:50.337Z,95812.75
2022-09-11T05:42:17.609Z,95818.44
2022-09-11T05:44:44.728Z,95814.78
2022-09-11T05:47:11.810Z,95821.53
2022-09-11T05:49:38.874Z,95829.78
2022-09-11T05:52:06.188Z,95827.09
2022-09-11T05:54:34.668Z,95832.03
2022-09-11T05:57:05.638Z,95828.63
2022-09-11T05:59:34.668Z,95840.59
2022-09-11T06:02:01.733Z,95843.09
2022-09-11T06:04:28.828Z,95843.56
2022-09-11T06:06:55.888Z,95841.88
2022-09-11T06:09:22.927Z,95841.16
2022-09-11T06:11:51.448Z,95847.59
2022-09-11T06:14:18.486Z,95843.56
2022-09-11T06:16:45.662Z,95842.22
2022-09-11T06:19:12.729Z,95843.19
2022-09-11T06:21:39.827Z,95843.91
2022-09-11T06:24:07.427Z,95855.66
2022-09-11T06:26:35.330Z,95850.38
2022-09-11T06:29:03.868Z,95855.03
2022-09-11T06:31:30.914Z,95855.22
2022-09-11T06:33:57.966Z,95852.00
2022-09-11T06:36:26.910Z,95855.13
2022-09-11T06:38:54.749Z,95856.69
2022-09-11T06:41:22.627Z,95854.97
2022-09-11T06:43:49.706Z,95857.47
2022-09-11T06:46:20.607Z,95854.34
2022-09-11T06:48:50.028Z,95861.09
2022-09-11T06:51:19.307Z,95850.97
2022-09-11T06:53:47.403Z,95852.06
2022-09-11T06:56:16.827Z,95841.41
2022-09-11T06:58:45.668Z,95840.38
2022-09-11T07:01:14.746Z,95838.47
2022-09-11T07:03:44.529Z,95840.34
2022-09-11T07:06:12.310Z,95842.97
2022-09-11T07:08:39.407Z,95840.59
2022-09-11T07:11:08.130Z,95850.97
2022-09-11T07:13:37.491Z,95841.84
2022-09-11T07:16:07.230Z,95840.50
2022-09-11T07:18:34.850Z,95843.38
2022-09-11T07:21:07.248Z,95841.47
2022-09-11T07:23:34.468Z,95845.97
2022-09-11T07:26:03.547Z,95842.13
2022-09-11T07:28:30.699Z,95841.78
2022-09-11T07:31:07.379Z,95840.16
2022-09-11T07:33:34.509Z,95839.69
2022-09-11T07:36:08.788Z,95837.97
2022-09-11T07:38:35.869Z,95838.09
2022-09-11T07:41:02.890Z,95843.28
2022-09-11T07:43:30.026Z,95839.66
2022-09-11T07:45:57.299Z,95833.63
2022-09-11T07:48:24.547Z,95836.66
2022-09-11T07:50:59.070Z,95825.66
2022-09-11T07:53:27.728Z,95830.69
2022-09-11T07:55:54.809Z,95831.88
2022-09-11T07:58:22.051Z,95828.00
2022-09-11T08:00:49.156Z,95827.66
2022-09-11T08:03:16.219Z,95834.75
2022-09-11T08:05:43.308Z,95834.41
2022-09-11T08:08:10.489Z,95832.81
2022-09-11T08:10:39.831Z,95832.41
2022-09-11T08:13:09.542Z,95835.69
2022-09-11T08:15:36.787Z,95832.88
2022-09-11T08:18:04.308Z,95832.50
2022-09-11T08:20:31.628Z,95829.59
2022-09-11T08:22:58.686Z,95841.31
2022-09-11T08:25:25.727Z,95838.16
2022-09-11T08:27:54.608Z,95842.94
2022-09-11T08:30:21.768Z,95836.81
2022-09-11T08:32:48.848Z,95843.56
2022-09-11T08:35:15.947Z,95837.59
2022-09-11T08:37:43.050Z,95840.03
2022-09-11T08:40:10.269Z,95832.03
2022-09-11T08:42:39.927Z,95844.88
2022-09-11T08:45:16.629Z,95831.28
2022-09-11T08:47:51.950Z,95835.31
2022-09-11T08:50:25.268Z,95837.00
2022-09-11T08:52:52.687Z,95826.97
2022-09-11T08:55:30.150Z,95827.25
2022-09-11T08:58:11.048Z,95826.47
2022-09-11T09:00:48.073Z,95829.34
2022-09-11T09:03:37.448Z,95827.66
2022-09-11T09:06:49.988Z,95829.56
2022-09-11T09:09:34.340Z,95829.56
2022-09-11T09:12:13.768Z,95830.16
2022-09-11T09:15:04.530Z,95829.50
2022-09-11T09:17:41.270Z,95829.03
2022-09-11T09:20:15.608Z,95831.13
2022-09-11T09:22:50.688Z,95829.66
2022-09-11T09:25:21.756Z,95830.44
2022-09-11T09:27:53.766Z,95834.03
2022-09-11T09:30:23.749Z,95820.66
2022-09-11T09:33:00.308Z,95831.41
2022-09-11T09:35:39.028Z,95814.91
2022-09-11T09:38:13.057Z,95824.69
2022-09-11T09:40:54.850Z,95821.66
2022-09-11T09:43:44.092Z,95817.69
2022-09-11T09:46:24.548Z,95811.75
2022-09-11T09:48:53.407Z,95819.84
2022-09-11T09:51:20.507Z,95809.13
2022-09-11T09:53:54.135Z,95812.78
2022-09-11T09:56:23.728Z,95809.84
2022-09-11T09:58:58.928Z,95807.00
2022-09-11T10:01:50.046Z,95807.72
2022-09-11T10:04:22.066Z,95802.56
2022-09-11T10:06:52.367Z,95796.84
2022-09-11T10:09:25.948Z,95797.34
2022-09-11T10:11:56.789Z,95799.44
2022-09-11T10:14:49.826Z,95800.47
2022-09-11T10:17:21.069Z,95788.41
2022-09-11T10:19:51.487Z,95794.06
2022-09-11T10:22:25.592Z,95792.78
2022-09-11T10:25:00.788Z,95791.91
2022-09-11T10:27:29.750Z,95781.91
2022-09-11T10:29:57.107Z,95784.22
2022-09-11T10:32:25.289Z,95787.19
2022-09-11T10:34:54.389Z,95781.69
2022-09-11T10:37:26.809Z,95789.28
2022-09-11T10:40:04.694Z,95783.66
2022-09-11T10:42:35.688Z,95784.13
2022-09-11T10:45:12.687Z,95787.91
2022-09-11T10:47:39.806Z,95781.03
2022-09-11T10:50:24.067Z,95782.19
2022-09-11T10:53:11.507Z,95778.34
2022-09-11T10:55:46.069Z,95774.72
2022-09-11T10:58:18.249Z,95765.16
2022-09-11T11:00:45.627Z,95761.38
2022-09-11T11:03:17.908Z,95761.00
2022-09-11T11:06:03.016Z,95763.47
2022-09-11T11:09:11.413Z,95760.50
2022-09-11T11:11:54.988Z,95759.34
2022-09-11T11:14:46.708Z,95751.66
2022-09-11T11:17:24.228Z,95751.97
2022-09-11T11:20:18.489Z,95753.84
2022-09-11T11:23:18.302Z,95755.84
2022-09-11T11:25:59.259Z,95752.06
2022-09-11T11:29:02.759Z,95754.47
2022-09-11T11:31:44.424Z,95746.06
2022-09-11T11:34:37.340Z,95754.56
2022-09-11T11:37:12.380Z,95755.88
2022-09-11T11:39:54.658Z,95757.22
2022-09-11T11:42:28.002Z,95760.19
2022-09-11T11:45:00.481Z,95757.97
2022-09-11T11:47:35.579Z,95759.72
2022-09-11T11:50:13.976Z,95755.16
2022-09-11T11:53:00.175Z,95755.03
2022-09-11T11:55:43.301Z,95760.31
2022-09-11T11:58:23.855Z,95753.34
2022-09-11T12:00:59.965Z,95750.16
2022-09-11T12:03:36.409Z,95748.88
2022-09-11T12:06:05.140Z,95738.25
2022-09-11T12:08:32.386Z,95734.56
2022-09-11T12:11:05.640Z,95736.56
2022-09-11T12:13:37.022Z,95737.66
2022-09-11T12:16:13.058Z,95724.47
2022-09-11T12:18:41.979Z,95728.44
2022-09-11T12:21:37.369Z,95721.06
2022-09-11T12:24:17.821Z,95721.03
2022-09-11T12:26:46.962Z,95719.34
2022-09-11T12:29:50.162Z,95718.72
2022-09-11T12:32:27.124Z,95721.78
2022-09-11T12:35:13.463Z,95719.06
2022-09-11T12:37:43.082Z,95718.72
2022-09-11T12:40:18.904Z,95706.50
2022-09-11T12:42:57.381Z,95709.44
2022-09-11T12:45:45.664Z,95704.22
2022-09-11T12:48:15.922Z,95712.84
2022-09-11T12:50:51.401Z,95702.53
2022-09-11T12:53:26.463Z,95710.19
2022-09-11T12:55:58.882Z,95703.88
2022-09-11T12:58:35.721Z,95692.16
2022-09-11T13:01:22.701Z,95694.97
2022-09-11T13:03:58.203Z,95695.06
2022-09-11T13:06:40.903Z,95696.97
2022-09-11T13:09:19.642Z,95696.41
2022-09-11T13:11:49.724Z,95682.94
2022-09-11T13:14:47.364Z,95684.16
2022-09-11T13:17:22.281Z,95686.03
2022-09-11T13:19:49.441Z,95670.47
2022-09-11T13:22:25.502Z,95678.06
2022-09-11T13:25:05.164Z,95659.50
2022-09-11T13:27:35.562Z,95657.47
2022-09-11T13:30:05.985Z,95661.78
2022-09-11T13:32:34.842Z,95654.06
2022-09-11T13:35:09.892Z,95661.09
2022-09-11T13:37:43.581Z,95660.88
2022-09-11T13:40:21.082Z,95657.41
2022-09-11T13:42:49.322Z,95650.94
2022-09-11T13:45:20.806Z,95652.25
2022-09-11T13:47:48.342Z,95642.91
2022-09-11T13:50:17.943Z,95637.78
2022-09-11T13:52:46.942Z,95632.53
2022-09-11T13:55:20.161Z,95631.25
2022-09-11T13:57:53.102Z,95628.00
2022-09-11T14:00:44.643Z,95631.81
2022-09-11T14:03:21.183Z,95624.63
2022-09-11T14:05:50.743Z,95627.41
2022-09-11T14:08:31.623Z,95628.31
2022-09-11T14:11:04.372Z,95618.53
2022-09-11T14:13:42.485Z,95616.06
2022-09-11T14:16:24.328Z,95612.91
2022-09-11T14:18:55.842Z,95615.56
2022-09-11T14:21:26.362Z,95615.25
2022-09-11T14:23:55.825Z,95616.69
2022-09-11T14:26:24.523Z,95623.56
2022-09-11T14:29:06.322Z,95612.97
2022-09-11T14:31:37.806Z,95621.44
2022-09-11T14:34:14.214Z,95624.13
2022-09-11T14:36:45.503Z,95617.41
2022-09-11T14:39:28.609Z,95620.06
2022-09-11T14:41:57.161Z,95609.59
2022-09-11T14:44:26.942Z,95611.66
2022-09-11T14:46:56.221Z,95603.63
2022-09-11T14:49:23.331Z,95603.47
2022-09-11T14:51:55.266Z,95602.56
2022-09-11T14:54:22.350Z,95602.06
2022-09-11T14:56:49.804Z,95601.56
2022-09-11T14:59:17.223Z,95587.66
2022-09-11T15:01:44.378Z,95585.69
2022-09-11T15:04:18.982Z,95586.06
2022-09-11T15:06:48.981Z,95591.84
2022-09-11T15:09:16.362Z,95591.53
2022-09-11T15:11:44.053Z,95586.22
2022-09-11T15:14:23.403Z,95591.56
2022-09-11T15:16:58.230Z,95590.78
2022-09-11T15:19:26.689Z,95588.25
2022-09-11T15:21:54.002Z,95577.84
2022-09-11T15:24:21.063Z,95591.56
2022-09-11T15:26:48.144Z,95590.78
2022-09-11T15:29:15.944Z,95583.94
2022-09-11T15:31:43.003Z,95581.69
2022-09-11T15:34:11.683Z,95577.44
2022-09-11T15:36:40.564Z,95569.84
2022-09-11T15:39:11.843Z,95569.31
2022-09-11T15:41:39.027Z,95570.09
2022-09-11T15:44:10.603Z,95570.56
2022-09-11T15:46:37.903Z,95572.72
2022-09-11T15:49:05.283Z,95562.84
2022-09-11T15:51:32.741Z,95566.47
2022-09-11T15:54:02.123Z,95567.13
2022-09-11T15:56:29.423Z,95569.47
2022-09-11T15:58:58.603Z,95559.78
2022-09-11T16:01:27.402Z,95559.50
2022-09-11T16:03:56.127Z,95554.16
2022-09-11T16:06:25.024Z,95555.25
2022-09-11T16:08:56.181Z,95554.78
2022-09-11T16:11:25.643Z,95560.59
2022-09-11T16:13:53.341Z,95558.75
2022-09-11T16:16:21.083Z,95555.69
2022-09-11T16:18:48.223Z,95560.28
2022-09-11T16:21:17.121Z,95563.38
2022-09-11T16:23:44.580Z,95560.34
2022-09-11T16:26:14.535Z,95550.72
2022-09-11T16:28:43.604Z,95550.94
2022-09-11T16:31:11.218Z,95554.97
2022-09-11T16:33:40.734Z,95563.72
2022-09-11T16:36:16.955Z,95553.84
2022-09-11T16:38:45.422Z,95553.97
2022-09-11T16:41:14.924Z,95557.72
2022-09-11T16:43:45.504Z,95551.41
2022-09-11T16:46:14.462Z,95562.63
2022-09-11T16:48:41.944Z,95552.19
2022-09-11T16:51:09.066Z,95552.47
2022-09-11T16:53:37.122Z,95558.34
2022-09-11T16:56:05.582Z,95554.81
2022-09-11T16:58:33.182Z,95558.34
2022-09-11T17:01:04.442Z,95550.00
2022-09-11T17:03:32.943Z,95555.84
2022-09-11T17:06:00.363Z,95560.09
2022-09-11T17:08:27.903Z,95550.50
2022-09-11T17:10:57.471Z,95549.19
2022-09-11T17:13:25.110Z,95553.22
2022-09-11T17:15:52.227Z,95552.69
2022-09-11T17:18:20.822Z,95549.53
2022-09-11T17:20:47.943Z,95549.25
2022-09-11T17:23:15.043Z,95550.38
2022-09-11T17:25:42.196Z,95540.63
2022-09-11T17:28:09.283Z,95546.69
2022-09-11T17:30:38.201Z,95547.72
2022-09-11T17:33:05.364Z,95540.84
2022-09-11T17:35:34.742Z,95539.72
2022-09-11T17:38:02.102Z,95548.22
2022-09-11T17:40:29.523Z,95543.31
2022-09-11T17:42:56.843Z,95544.69
2022-09-11T17:45:23.963Z,95542.06
2022-09-11T17:47:51.822Z,95538.44
2022-09-11T17:50:19.141Z,95541.38
2022-09-11T17:52:47.663Z,95543.31
2022-09-11T17:55:14.782Z,95550.38
2022-09-11T17:57:41.863Z,95549.63
2022-09-11T18:00:10.607Z,95549.13
2022-09-11T18:02:37.763Z,95555.34
2022-09-11T18:05:06.123Z,95550.63
2022-09-11T18:07:33.245Z,95549.63
2022-09-11T18:10:01.842Z,95551.03
2022-09-11T18:12:29.061Z,95551.38
2022-09-11T18:14:56.185Z,95541.25
2022-09-11T18:17:23.265Z,95552.25
2022-09-11T18:19:50.643Z,95545.63
2022-09-11T18:22:19.785Z,95550.69
2022-09-11T18:24:47.190Z,95553.72
2022-09-11T18:27:15.751Z,95556.38
2022-09-11T18:29:42.881Z,95555.38
2022-09-11T18:32:10.561Z,95551.38
2022-09-11T18:34:37.641Z,95553.50
2022-09-11T18:37:04.681Z,95557.31
2022-09-11T18:39:31.721Z,95557.53
2022-09-11T18:42:00.001Z,95553.81
2022-09-11T18:44:28.801Z,95554.84
2022-09-11T18:46:56.101Z,95557.75
2022-09-11T18:49:24.001Z,95563.16
2022-09-11T18:51:54.499Z,95556.28
2022-09-11T18:54:26.523Z,95566.38
2022-09-11T18:56:53.960Z,95566.44
2022-09-11T18:59:21.021Z,95566.97
2022-09-11T19:01:49.984Z,95567.00
2022-09-11T19:04:17.288Z,95571.28
2022-09-11T19:06:44.540Z,95568.88
2022-09-11T19:09:14.022Z,95575.53
2022-09-11T19:11:42.400Z,95570.63
2022-09-11T19:14:12.319Z,95573.41
2022-09-11T19:16:40.608Z,95583.72
2022-09-11T19:19:09.262Z,95583.66
2022-09-11T19:21:36.920Z,95574.09
2022-09-11T19:24:04.360Z,95582.72
2022-09-11T19:26:35.179Z,95578.25
2022-09-11T19:29:02.306Z,95578.81
2022-09-11T19:31:29.984Z,95583.41
2022-09-11T19:34:00.265Z,95586.66
2022-09-11T19:36:31.252Z,95586.94
2022-09-11T19:39:00.343Z,95582.69
2022-09-11T19:41:30.921Z,95578.69
2022-09-11T19:44:00.340Z,95575.50
2022-09-11T19:46:29.643Z,95581.94
2022-09-11T19:49:00.319Z,95580.03
2022-09-11T19:51:31.662Z,95580.31
2022-09-11T19:54:01.881Z,95580.06
2022-09-11T19:56:30.500Z,95584.06
2022-09-11T19:58:58.156Z,95586.22
2022-09-11T20:01:27.000Z,95595.28
2022-09-11T20:03:55.481Z,95583.25
2022-09-11T20:06:26.280Z,95595.28
2022-09-11T20:09:13.408Z,95582.22
2022-09-11T20:11:42.021Z,95593.41
2022-09-11T20:14:10.142Z,95588.91
2022-09-11T20:16:37.261Z,95597.69
2022-09-11T20:19:04.363Z,95591.63
2022-09-11T20:21:32.060Z,95592.13
2022-09-11T20:24:00.603Z,95586.53
2022-09-11T20:26:29.404Z,95594.00
2022-09-11T20:29:00.523Z,95595.59
2022-09-11T20:31:30.118Z,95594.00
2022-09-11T20:33:58.084Z,95595.06
2022-09-11T20:36:25.440Z,95595.06
2022-09-11T20:38:54.000Z,95588.41
2022-09-11T20:41:23.643Z,95588.13
2022-09-11T20:43:51.121Z,95594.00
2022-09-11T20:46:18.328Z,95588.13
2022-09-11T20:48:48.532Z,95584.69
2022-09-11T20:51:15.659Z,95582.81
2022-09-11T20:53:42.779Z,95587.09
2022-09-11T20:56:12.721Z,95588.41
2022-09-11T20:58:41.940Z,95592.94
2022-09-11T21:01:13.327Z,95591.63
2022-09-11T21:03:45.610Z,95592.69
2022-09-11T21:06:12.963Z,95590.28
2022-09-11T21:08:40.040Z,95585.25
2022-09-11T21:11:08.343Z,95586.59
2022-09-11T21:13:36.880Z,95586.31
2022-09-11T21:16:09.371Z,95582.84
2022-09-11T21:18:37.481Z,95580.72
2022-09-11T21:21:04.841Z,95587.91
2022-09-11T21:23:31.981Z,95585.78
2022-09-11T21:25:59.145Z,95585.00
2022-09-11T21:28:26.442Z,95596.22
2022-09-11T21:30:53.580Z,95593.28
2022-09-11T21:33:22.063Z,95587.44
2022-09-11T21:35:53.499Z,95579.94
2022-09-11T21:38:21.520Z,95581.00
2022-09-11T21:40:48.561Z,95589.56
2022-09-11T21:43:15.761Z,95586.06
2022-09-11T21:45:42.860Z,95591.41
2022-09-11T21:48:10.861Z,95591.66
2022-09-11T21:50:40.403Z,95589.00
2022-09-11T21:53:09.761Z,95594.06
2022-09-11T21:55:37.299Z,95592.75
2022-09-11T21:58:05.460Z,95596.50
2022-09-11T22:00:39.466Z,95587.94
2022-09-11T22:03:09.341Z,95588.75
2022-09-11T22:05:40.479Z,95595.38
2022-09-11T22:08:07.522Z,95596.97
2022-09-11T22:10:34.603Z,95599.91
2022-09-11T22:13:02.082Z,95596.13
2022-09-11T22:15:29.280Z,95586.25
2022-09-11T22:17:56.280Z,95596.34
2022-09-11T22:20:23.401Z,95588.09
2022-09-11T22:22:51.906Z,95600.88
2022-09-11T22:25:18.997Z,95591.00
2022-09-11T22:27:46.161Z,95597.41
2022-09-11T22:30:13.693Z,95599.28
2022-09-11T22:32:41.000Z,95589.41
2022-09-11T22:35:08.661Z,95593.13
2022-09-11T22:37:35.788Z,95602.72
2022-09-11T22:40:05.320Z,95595.53
2022-09-11T22:42:32.400Z,95593.38
2022-09-11T22:44:59.581Z,95591.50
2022-09-11T22:47:26.680Z,95594.63
2022-09-11T22:49:53.820Z,95594.63
2022-09-11T22:52:20.853Z,95590.91
2022-09-11T22:54:48.119Z,95597.78
2022-09-11T22:57:16.782Z,95592.44
2022-09-11T22:59:44.561Z,95586.56
2022-09-11T23:02:12.078Z,95594.50
2022-09-11T23:04:39.500Z,95605.34
2022-09-11T23:07:06.541Z,95601.88
2022-09-11T23:09:33.601Z,95603.22
2022-09-11T23:12:00.641Z,95611.44
2022-09-11T23:14:29.180Z,95609.84
2022-09-11T23:16:56.279Z,95611.69
2022-09-11T23:19:23.323Z,95608.78
2022-09-11T23:21:51.701Z,95602.91
2022-09-11T23:24:18.773Z,95605.03
2022-09-11T23:26:45.842Z,95597.81
2022-09-11T23:29:13.839Z,95599.38
2022-09-11T23:31:42.416Z,95600.13
2022-09-11T23:34:11.071Z,95597.47
2022-09-11T23:36:38.160Z,95596.38
2022-09-11T23:39:05.242Z,95591.84
2022-09-11T23:41:32.561Z,95593.91
2022-09-11T23:43:59.655Z,95591.22
2022-09-11T23:46:27.001Z,95594.34
2022-09-11T23:48:55.514Z,95597.53
2022-09-11T23:51:22.700Z,95586.63
2022-09-11T23:53:50.019Z,95595.16
2022-09-11T23:56:18.542Z,95590.66
2022-09-11T23:58:45.608Z,95594.63
